メインページ
METAR-TAF:

METAR-TAF

空港 :

コナクリ国際空港

コナクリ, ギニア

緯度: 09-34N, 経度: 013-37W, 海抜: 26m

現時点の気象観測

当レポートは32分前の01:00(UTC)に作成
西の風 8kt
気温 25°C
湿度 100%
気圧 1014 hPa
視程: 3000m
高度1000ftの雲は散在している
高度2300ftの雲はほとんどない, 積乱雲.
高度10000ftの千切れ雲あり
激しい雷雨, 雨

METAR: GUCY 160100Z 26008KT 3000 TSRA SCT010 FEW023CB BKN100 25/25 Q1014 CB/NE/SE NOSIG

時間: 01:32 (01:32 UTC)

予報

当レポートは2時間32分前の23:00(UTC)に作成
予報は16日の 00時(UTC)から 17日の 06時(UTC)まで有効
西の風 6kt
視程10km以上
高度1500ftの雲は散在している
高度11000ftの雲は散在している
16日の 02時(UTC)から 16日の 07時(UTC)まで一時的に
高度1500ftの千切れ雲あり
高度2300ftの雲はほとんどない, 積乱雲.
高度11000ftの千切れ雲あり
激しい雷雨
16日の 08時(UTC)から 16日の 11時(UTC)まで徐々に
変向風 2kt

TAF: GUCY 152300Z 1600/1706 26006KT 9999 SCT015 SCT110 TEMPO 1602/1607 TS BKN015 FEW023CB BKN110 BECMG 1608/1611 VRB02KT

4,000以上の空港の気象観測と天気予報(METAR報とTAF報)

利用可能な観測所は地図上に黄色い丸と赤い丸で示す。

丸の上にカーソルを重ねると観測所名を参照できる。

次にクリックすると気象観測と天気予報を参照できる。

マップの切り替え:黒色「×」印の緑ボタンをクリックして拡大、「-」印の緑ボタンをクリックして縮小、緑色の三角印をクリックして隣りの地図に切り替え


METAR-TAF: